Time;durP1;ratioP1;P1;durP2;ratioP2;P2;SDS_P1;SDS_P2;PMS_P1;PMS_P2;Temp;Humidity;BMP_temperature;BMP_pressure;BME280_temperature;BME280_humidity;BME280_pressure;Samples;Min_cycle;Max_cycle;Signal;HPM_P1;HPM_P2
2023/11/11 00:00:11;;;;;;;1999.90;999.90;;;6.10;99.90;;;;;;5052053;28;20415;-68
2023/11/11 00:02:37;;;;;;;1999.90;999.90;;;6.10;99.90;;;;;;5049935;28;20451;-68
2023/11/11 00:05:04;;;;;;;1999.90;999.90;;;6.00;99.90;;;;;;5049831;28;20351;-68
2023/11/11 00:07:29;;;;;;;1999.90;999.90;;;6.00;99.90;;;;;;5042827;28;20029;-68
2023/11/11 00:09:55;;;;;;;1999.90;999.90;;;6.00;99.90;;;;;;5049884;28;20032;-68
2023/11/11 00:12:21;;;;;;;1999.90;999.90;;;5.90;99.90;;;;;;5052957;28;20021;-68
2023/11/11 00:14:47;;;;;;;1999.90;999.90;;;5.90;99.90;;;;;;5048533;28;20092;-68
2023/11/11 00:17:13;;;;;;;1999.90;999.90;;;6.00;99.90;;;;;;5049928;28;20043;-68
2023/11/11 00:19:39;;;;;;;1999.90;999.90;;;6.00;99.90;;;;;;5047446;28;20025;-68
2023/11/11 00:22:05;;;;;;;1999.90;999.90;;;6.00;99.90;;;;;;5047084;28;20474;-67
2023/11/11 00:24:31;;;;;;;1999.90;999.90;;;6.00;99.90;;;;;;5045475;28;20028;-68
2023/11/11 00:26:57;;;;;;;1999.90;999.90;;;6.00;99.90;;;;;;5043197;28;20022;-68
2023/11/11 00:29:23;;;;;;;1999.90;999.90;;;6.00;99.90;;;;;;5054375;28;20312;-68
2023/11/11 00:31:49;;;;;;;1999.90;999.90;;;6.00;99.90;;;;;;5042318;28;20021;-68
2023/11/11 00:34:16;;;;;;;1999.90;999.90;;;6.00;99.90;;;;;;5050016;28;20040;-68
2023/11/11 00:36:42;;;;;;;1999.90;999.90;;;6.00;99.90;;;;;;5039974;28;20141;-74
2023/11/11 00:39:12;;;;;;;1999.90;999.90;;;6.00;99.90;;;;;;5050951;28;20109;-69
2023/11/11 00:41:38;;;;;;;1999.90;999.90;;;6.00;99.90;;;;;;5047038;28;20420;-68
2023/11/11 00:44:09;;;;;;;1999.90;999.90;;;6.00;99.90;;;;;;5053483;28;20029;-69
2023/11/11 00:46:39;;;;;;;1999.90;999.90;;;6.10;99.90;;;;;;5049786;28;20328;-69
2023/11/11 00:49:08;;;;;;;1999.90;999.90;;;6.10;99.90;;;;;;5055510;28;20424;-76
2023/11/11 00:51:36;;;;;;;1999.90;999.90;;;6.20;99.90;;;;;;5045324;28;20080;-68
2023/11/11 00:54:02;;;;;;;1999.90;999.90;;;6.30;99.90;;;;;;5051738;28;20036;-69
2023/11/11 00:56:28;;;;;;;1999.90;999.90;;;6.30;99.90;;;;;;5055027;28;20029;-69
2023/11/11 00:58:54;;;;;;;1999.90;999.90;;;6.40;99.90;;;;;;5053722;28;20025;-68
2023/11/11 01:01:20;;;;;;;1999.90;999.90;;;6.40;99.90;;;;;;5046688;28;20064;-69
2023/11/11 01:03:45;;;;;;;1999.90;999.90;;;6.50;99.90;;;;;;5048571;28;20373;-68
2023/11/11 01:06:12;;;;;;;1999.90;999.90;;;6.60;99.90;;;;;;5052589;28;20111;-82
2023/11/11 01:08:37;;;;;;;1999.90;999.90;;;6.60;99.90;;;;;;5039388;28;20298;-72
2023/11/11 01:11:03;;;;;;;1999.90;999.90;;;6.80;99.90;;;;;;5052268;28;20033;-69
2023/11/11 01:13:29;;;;;;;1999.90;999.90;;;6.80;99.90;;;;;;5052094;28;20687;-69
2023/11/11 01:15:59;;;;;;;1999.90;999.90;;;6.80;99.90;;;;;;5052726;28;20499;-68
2023/11/11 01:18:29;;;;;;;1999.90;999.90;;;6.90;99.90;;;;;;5052884;28;20420;-81
2023/11/11 01:20:56;;;;;;;1999.90;999.90;;;6.90;99.90;;;;;;5045572;28;20029;-68
2023/11/11 01:23:22;;;;;;;;;;;6.70;99.90;;;;;;5053443;28;20040;-82
2023/11/11 01:25:48;;;;;;;1999.90;999.90;;;6.70;99.90;;;;;;5054937;28;19916;-68
2023/11/11 01:28:13;;;;;;;1999.90;999.90;;;6.70;99.90;;;;;;5049477;28;20409;-68
2023/11/11 01:30:39;;;;;;;1999.90;999.90;;;6.60;99.90;;;;;;5047924;28;20029;-68
2023/11/11 01:33:08;;;;;;;1999.90;999.90;;;6.60;99.90;;;;;;5048844;28;20136;-69
2023/11/11 01:35:33;;;;;;;1999.90;999.90;;;6.60;99.90;;;;;;5054438;28;20079;-68
2023/11/11 01:37:59;;;;;;;1999.90;999.90;;;6.60;99.90;;;;;;5051678;28;20037;-81
2023/11/11 01:40:26;;;;;;;1999.90;999.90;;;6.60;99.90;;;;;;5045092;28;20100;-68
2023/11/11 01:42:52;;;;;;;1999.90;999.90;;;6.60;99.90;;;;;;5050478;28;20041;-68
2023/11/11 01:45:18;;;;;;;1999.90;999.90;;;6.60;99.90;;;;;;5053495;28;20071;-68
2023/11/11 01:47:44;;;;;;;1999.90;999.90;;;6.60;99.90;;;;;;5048301;28;20434;-67
2023/11/11 01:50:10;;;;;;;1999.90;999.90;;;6.70;99.90;;;;;;5052427;28;20116;-82
2023/11/11 01:52:37;;;;;;;1999.90;999.90;;;6.80;99.90;;;;;;5052339;28;20278;-69
2023/11/11 01:55:05;;;;;;;1999.90;999.90;;;6.80;99.90;;;;;;5047693;28;20038;-70
2023/11/11 01:57:31;;;;;;;1999.90;999.90;;;6.70;99.90;;;;;;5053706;28;20028;-70
2023/11/11 01:59:59;;;;;;;1999.90;999.90;;;6.80;99.90;;;;;;5042419;28;20033;-71
2023/11/11 02:02:25;;;;;;;1999.90;999.90;;;6.80;99.90;;;;;;5046531;28;20116;-69
2023/11/11 02:04:51;;;;;;;1999.90;999.90;;;6.90;99.90;;;;;;5050381;28;20391;-70
2023/11/11 02:07:16;;;;;;;1999.90;999.90;;;7.00;99.90;;;;;;5050493;28;20020;-71
2023/11/11 02:09:43;;;;;;;1999.90;999.90;;;7.00;99.90;;;;;;5042138;28;20032;-70
2023/11/11 02:12:09;;;;;;;1999.90;999.90;;;7.00;99.90;;;;;;5053158;28;20020;-71
2023/11/11 02:14:37;;;;;;;1999.90;999.90;;;7.00;99.90;;;;;;5052620;28;20112;-70
2023/11/11 02:17:03;;;;;;;1999.90;999.90;;;7.00;99.90;;;;;;5045686;28;20404;-70
2023/11/11 02:19:29;;;;;;;1999.90;999.90;;;7.00;99.90;;;;;;5044761;28;20029;-70
2023/11/11 02:21:54;;;;;;;1999.90;999.90;;;7.00;99.90;;;;;;5051907;28;20029;-69
2023/11/11 02:24:21;;;;;;;1999.90;999.90;;;7.00;99.90;;;;;;5053393;28;20074;-80
2023/11/11 02:26:48;;;;;;;1999.90;999.90;;;7.00;99.90;;;;;;5047851;28;20439;-69
2023/11/11 02:29:14;;;;;;;1999.90;999.90;;;7.00;99.90;;;;;;5053268;28;20033;-70
2023/11/11 02:31:39;;;;;;;1999.90;999.90;;;7.00;99.90;;;;;;5053753;28;20021;-69
2023/11/11 02:34:05;;;;;;;1999.90;999.90;;;6.90;99.90;;;;;;5045716;28;20411;-70
2023/11/11 02:36:31;;;;;;;1999.90;999.90;;;6.90;99.90;;;;;;5051809;28;20460;-69
2023/11/11 02:38:56;;;;;;;1999.90;999.90;;;6.80;99.90;;;;;;5053790;28;20025;-69
2023/11/11 02:41:22;;;;;;;1999.90;999.90;;;6.80;99.90;;;;;;5050579;28;20040;-70
2023/11/11 02:43:48;;;;;;;1999.90;999.90;;;6.70;99.90;;;;;;5053373;28;20021;-69
2023/11/11 02:46:15;;;;;;;1999.90;999.90;;;6.70;99.90;;;;;;5042909;28;20032;-69
2023/11/11 02:48:41;;;;;;;1999.90;999.90;;;6.60;99.90;;;;;;5051118;28;20037;-69
2023/11/11 02:51:07;;;;;;;1999.90;999.90;;;6.60;99.90;;;;;;5044136;28;20056;-69
2023/11/11 02:53:33;;;;;;;1999.90;999.90;;;6.50;99.90;;;;;;5051013;28;20039;-70
2023/11/11 02:55:59;;;;;;;1999.90;999.90;;;6.40;99.90;;;;;;5048824;28;20043;-76
2023/11/11 02:58:25;;;;;;;1999.90;999.90;;;6.40;99.90;;;;;;5046572;28;20029;-76
2023/11/11 03:00:53;;;;;;;1999.90;999.90;;;6.30;99.90;;;;;;5045355;28;20035;-69
2023/11/11 03:03:19;;;;;;;1999.90;999.90;;;6.30;99.90;;;;;;5047261;28;20025;-69
2023/11/11 03:05:45;;;;;;;1999.90;999.90;;;6.30;99.90;;;;;;5047992;28;20036;-69
2023/11/11 03:08:11;;;;;;;1999.90;999.90;;;6.30;99.90;;;;;;5048011;28;20025;-69
2023/11/11 03:10:36;;;;;;;1999.90;999.90;;;6.30;99.90;;;;;;5043007;28;20332;-69
2023/11/11 03:13:02;;;;;;;1999.90;999.90;;;6.30;99.90;;;;;;5051131;28;20391;-71
2023/11/11 03:15:28;;;;;;;1999.90;999.90;;;6.30;99.90;;;;;;5043386;28;20018;-69
2023/11/11 03:17:53;;;;;;;1999.90;999.90;;;6.20;99.90;;;;;;5047090;28;20067;-69
2023/11/11 03:20:20;;;;;;;1999.90;999.90;;;6.10;99.90;;;;;;5044914;28;20412;-69
2023/11/11 03:22:46;;;;;;;1999.90;999.90;;;6.10;99.90;;;;;;5045704;28;20079;-69
2023/11/11 03:25:12;;;;;;;1999.90;999.90;;;6.10;99.90;;;;;;5043213;28;20116;-69
2023/11/11 03:27:38;;;;;;;1999.90;999.90;;;6.10;99.90;;;;;;5047299;28;20039;-69
2023/11/11 03:30:04;;;;;;;1999.90;999.90;;;6.20;99.90;;;;;;5046627;28;20606;-69
2023/11/11 03:32:30;;;;;;;1999.90;999.90;;;6.30;99.90;;;;;;5044946;28;20482;-76
2023/11/11 03:34:56;;;;;;;1999.90;999.90;;;6.30;99.90;;;;;;5047441;28;20033;-70
2023/11/11 03:37:22;;;;;;;1999.90;999.90;;;6.30;99.90;;;;;;5045434;28;20024;-69
2023/11/11 03:39:47;;;;;;;1999.90;999.90;;;6.20;99.90;;;;;;5047051;28;20034;-69
2023/11/11 03:42:13;;;;;;;1999.90;999.90;;;6.20;99.90;;;;;;5049119;28;20032;-69
2023/11/11 03:44:39;;;;;;;1999.90;999.90;;;6.20;99.90;;;;;;5044865;28;20028;-69
2023/11/11 03:47:05;;;;;;;1999.90;999.90;;;6.30;99.90;;;;;;5054672;28;20309;-70
2023/11/11 03:49:30;;;;;;;1999.90;999.90;;;6.30;99.90;;;;;;5054932;28;20032;-69
2023/11/11 03:51:56;;;;;;;1999.90;999.90;;;6.30;99.90;;;;;;5055623;28;20419;-70
2023/11/11 03:54:22;;;;;;;1999.90;999.90;;;6.30;99.90;;;;;;5051216;28;20120;-70
2023/11/11 03:56:50;;;;;;;1999.90;999.90;;;6.30;99.90;;;;;;5054107;28;20021;-69
2023/11/11 03:59:16;;;;;;;1999.90;999.90;;;6.30;99.90;;;;;;5047342;28;20024;-69
2023/11/11 04:01:41;;;;;;;1999.90;999.90;;;6.40;99.90;;;;;;5054887;28;20036;-69
2023/11/11 04:04:08;;;;;;;1999.90;999.90;;;6.40;99.90;;;;;;5054797;28;20056;-69
2023/11/11 04:06:35;;;;;;;1999.90;999.90;;;6.40;99.90;;;;;;5055548;28;20029;-69
2023/11/11 04:09:01;;;;;;;1999.90;999.90;;;6.40;99.90;;;;;;5053011;28;20021;-77
2023/11/11 04:11:27;;;;;;;1999.90;999.90;;;6.50;99.90;;;;;;5051355;28;20044;-69
2023/11/11 04:13:53;;;;;;;1999.90;999.90;;;6.50;99.90;;;;;;5052457;28;20028;-69
2023/11/11 04:16:21;;;;;;;1999.90;999.90;;;6.50;99.90;;;;;;5054775;28;20064;-75
2023/11/11 04:18:47;;;;;;;1999.90;999.90;;;6.60;99.90;;;;;;5050683;28;20070;-69
2023/11/11 04:21:12;;;;;;;1999.90;999.90;;;6.60;99.90;;;;;;5052960;28;20025;-69
2023/11/11 04:23:40;;;;;;;1999.90;999.90;;;6.60;99.90;;;;;;5054253;28;20419;-69
2023/11/11 04:26:06;;;;;;;1999.90;999.90;;;6.60;99.90;;;;;;5051809;28;20037;-70
2023/11/11 04:28:31;;;;;;;1999.90;999.90;;;6.70;99.90;;;;;;5056156;28;20055;-69
2023/11/11 04:30:57;;;;;;;1999.90;999.90;;;6.70;99.90;;;;;;5054417;28;20040;-69
2023/11/11 04:33:23;;;;;;;1999.90;999.90;;;6.70;99.90;;;;;;5052875;28;20063;-69
2023/11/11 04:35:51;;;;;;;1999.90;999.90;;;6.60;99.90;;;;;;5055853;28;20419;-69
2023/11/11 04:38:17;;;;;;;1999.90;999.90;;;6.60;99.90;;;;;;5054510;28;20029;-70
2023/11/11 04:40:44;;;;;;;1999.90;999.90;;;6.60;99.90;;;;;;5054642;28;20032;-69
2023/11/11 04:43:10;;;;;;;1999.90;999.90;;;6.60;99.90;;;;;;5055275;28;20039;-70
2023/11/11 04:45:36;;;;;;;1999.90;999.90;;;6.70;99.90;;;;;;5050691;28;20359;-69
2023/11/11 04:48:02;;;;;;;1999.90;999.90;;;6.70;99.90;;;;;;5054968;28;20037;-69
2023/11/11 04:50:28;;;;;;;1999.90;999.90;;;6.80;99.90;;;;;;5052518;28;20060;-70
2023/11/11 04:52:54;;;;;;;1999.90;999.90;;;6.70;99.90;;;;;;5051017;28;20029;-69
2023/11/11 04:55:20;;;;;;;1999.90;999.90;;;6.70;99.90;;;;;;5054453;28;20389;-70
2023/11/11 04:57:45;;;;;;;1999.90;999.90;;;6.80;99.90;;;;;;5053022;28;20373;-69
2023/11/11 05:00:12;;;;;;;1999.90;999.90;;;6.80;99.90;;;;;;5053126;28;20025;-74
2023/11/11 05:02:40;;;;;;;1999.90;999.90;;;6.70;99.90;;;;;;5052946;28;20101;-70
2023/11/11 05:05:10;;;;;;;1999.90;999.90;;;6.70;99.90;;;;;;5053528;28;20479;-70
2023/11/11 05:07:39;;;;;;;1999.90;999.90;;;6.70;99.90;;;;;;5052101;28;20056;-72
2023/11/11 05:10:09;;;;;;;1999.90;999.90;;;6.80;99.90;;;;;;5049558;28;20059;-70
2023/11/11 05:12:38;;;;;;;1999.90;999.90;;;6.70;99.90;;;;;;5042809;28;20091;-69
2023/11/11 05:15:13;;;;;;;1999.90;999.90;;;6.70;99.90;;;;;;5054090;28;20442;-74
2023/11/11 05:17:44;;;;;;;1999.90;999.90;;;6.70;99.90;;;;;;5053145;28;20028;-69
2023/11/11 05:20:10;;;;;;;1999.90;999.90;;;6.70;99.90;;;;;;5053502;28;20025;-70
2023/11/11 05:22:37;;;;;;;;;;;6.70;99.90;;;;;;5045905;28;20074;-77
2023/11/11 05:25:04;;;;;;;1999.90;999.90;;;6.70;99.90;;;;;;5049708;28;19919;-70
2023/11/11 05:27:30;;;;;;;;;;;6.70;99.90;;;;;;5054015;28;20033;-69
2023/11/11 05:29:56;;;;;;;1999.90;999.90;;;6.80;99.90;;;;;;5053278;28;19909;-69
2023/11/11 05:32:22;;;;;;;1999.90;999.90;;;6.80;99.90;;;;;;5045668;28;20148;-70
2023/11/11 05:34:48;;;;;;;1999.90;999.90;;;6.80;99.90;;;;;;5048911;28;20278;-71
2023/11/11 05:37:14;;;;;;;1999.90;999.90;;;6.70;99.90;;;;;;5042965;28;20363;-70
2023/11/11 05:39:44;;;;;;;1999.90;999.90;;;6.70;99.90;;;;;;5049815;28;20029;-69
2023/11/11 05:42:11;;;;;;;1999.90;999.90;;;6.70;99.90;;;;;;5048120;28;20139;-69
2023/11/11 05:44:40;;;;;;;1999.90;999.90;;;6.70;99.90;;;;;;5045577;28;20029;-70
2023/11/11 05:47:06;;;;;;;1999.90;999.90;;;6.70;99.90;;;;;;5048796;28;20454;-71
2023/11/11 05:49:32;;;;;;;1999.90;999.90;;;6.70;99.90;;;;;;5049270;28;20466;-70
2023/11/11 05:51:58;;;;;;;1999.90;999.90;;;6.70;99.90;;;;;;5044894;28;20071;-69
2023/11/11 05:54:24;;;;;;;1999.90;999.90;;;6.60;99.90;;;;;;5047487;28;20029;-70
2023/11/11 05:56:50;;;;;;;1999.90;999.90;;;6.60;99.90;;;;;;5043544;28;20025;-78
2023/11/11 05:59:16;;;;;;;1999.90;999.90;;;6.50;99.90;;;;;;5041234;28;20027;-69
2023/11/11 06:01:48;;;;;;;1999.90;999.90;;;6.60;99.90;;;;;;5046912;28;20029;-69
2023/11/11 06:04:14;;;;;;;1999.90;999.90;;;6.60;99.90;;;;;;5042076;28;20033;-77
2023/11/11 06:06:43;;;;;;;1999.90;999.90;;;6.70;99.90;;;;;;5046830;28;20033;-69
2023/11/11 06:09:17;;;;;;;1999.90;999.90;;;6.60;99.90;;;;;;5043049;28;20025;-69
2023/11/11 06:11:45;;;;;;;1999.90;999.90;;;6.60;99.90;;;;;;5045785;28;20033;-69
2023/11/11 06:14:11;;;;;;;1999.90;999.90;;;6.50;99.90;;;;;;5039959;28;20527;-69
2023/11/11 06:16:38;;;;;;;1999.90;999.90;;;6.40;99.90;;;;;;5047401;28;20028;-70
2023/11/11 06:19:03;;;;;;;1999.90;999.90;;;6.50;99.90;;;;;;5045614;28;20026;-69
2023/11/11 06:21:29;;;;;;;1999.90;999.90;;;6.40;99.90;;;;;;5047191;28;20024;-69
2023/11/11 06:23:55;;;;;;;1999.90;999.90;;;6.50;99.90;;;;;;5047907;28;20427;-69
2023/11/11 06:26:21;;;;;;;1999.90;999.90;;;6.40;99.90;;;;;;5047488;28;20021;-68
2023/11/11 06:28:51;;;;;;;1999.90;999.90;;;6.40;99.90;;;;;;5048597;28;20041;-76
2023/11/11 06:31:20;;;;;;;1999.90;999.90;;;6.30;99.90;;;;;;5045647;28;20029;-69
2023/11/11 06:33:45;;;;;;;1999.90;999.90;;;6.30;99.90;;;;;;5050480;28;20067;-69
2023/11/11 06:36:13;;;;;;;1999.90;999.90;;;6.30;99.90;;;;;;5038559;28;20623;-69
2023/11/11 06:38:40;;;;;;;1999.90;999.90;;;6.20;99.90;;;;;;5033430;28;20025;-69
2023/11/11 06:41:07;;;;;;;1999.90;999.90;;;6.20;99.90;;;;;;5045742;28;20032;-69
2023/11/11 06:43:33;;;;;;;1999.90;999.90;;;6.10;99.90;;;;;;5045783;28;20037;-69
2023/11/11 06:45:59;;;;;;;1999.90;999.90;;;6.10;99.90;;;;;;5045707;28;20037;-68
2023/11/11 06:48:26;;;;;;;1999.90;999.90;;;6.00;99.90;;;;;;5044048;28;20294;-69
2023/11/11 06:50:52;;;;;;;1999.90;999.90;;;6.00;99.90;;;;;;5047360;28;20478;-69
2023/11/11 06:53:18;;;;;;;1999.90;999.90;;;5.90;99.90;;;;;;5045529;28;20038;-77
2023/11/11 06:55:46;;;;;;;1999.90;999.90;;;5.90;99.90;;;;;;5044801;28;20032;-69
2023/11/11 06:58:12;;;;;;;1999.90;999.90;;;5.90;99.90;;;;;;5048298;28;20028;-69
2023/11/11 07:00:37;;;;;;;1999.90;999.90;;;5.80;99.90;;;;;;5047832;28;20028;-69
2023/11/11 07:03:03;;;;;;;1999.90;999.90;;;5.80;99.90;;;;;;5044839;28;20029;-69
2023/11/11 07:05:29;;;;;;;1999.90;999.90;;;5.80;99.90;;;;;;5043681;28;20111;-69
2023/11/11 07:07:55;;;;;;;1999.90;999.90;;;5.80;99.90;;;;;;5039637;28;20352;-69
2023/11/11 07:10:23;;;;;;;1999.90;999.90;;;5.80;99.90;;;;;;5036317;28;20029;-69
2023/11/11 07:12:49;;;;;;;1999.90;999.90;;;5.90;99.90;;;;;;5044310;28;20324;-69
2023/11/11 07:15:15;;;;;;;1999.90;999.90;;;5.90;99.90;;;;;;5045368;28;20434;-69
2023/11/11 07:17:42;;;;;;;1999.90;999.90;;;5.90;99.90;;;;;;5051531;28;20025;-69
2023/11/11 07:20:19;;;;;;;1999.90;999.90;;;5.90;99.90;;;;;;5052605;28;20021;-69
2023/11/11 07:22:45;;;;;;;1999.90;999.90;;;6.10;99.90;;;;;;5048288;28;20043;-69
2023/11/11 07:25:11;;;;;;;1999.90;999.90;;;6.20;99.90;;;;;;5055224;28;20032;-68
2023/11/11 07:27:37;;;;;;;1999.90;999.90;;;6.30;99.90;;;;;;5059235;28;20091;-68
2023/11/11 07:30:05;;;;;;;1999.90;999.90;;;6.30;99.90;;;;;;5058157;28;20033;-70
2023/11/11 07:32:31;;;;;;;1999.90;999.90;;;6.30;99.90;;;;;;5051224;28;20031;-68
2023/11/11 07:34:58;;;;;;;1999.90;999.90;;;6.40;99.90;;;;;;5055587;28;20324;-79
2023/11/11 07:37:24;;;;;;;1999.90;999.90;;;6.50;99.90;;;;;;5058737;28;20024;-68
2023/11/11 07:39:51;;;;;;;1999.90;999.90;;;6.50;99.90;;;;;;5056297;28;20029;-68
2023/11/11 07:42:16;;;;;;;1999.90;999.90;;;6.50;99.90;;;;;;5043084;28;20025;-68
2023/11/11 07:44:42;;;;;;;1999.90;999.90;;;6.40;99.90;;;;;;5058038;28;20047;-75
2023/11/11 07:47:10;;;;;;;1999.90;999.90;;;6.50;99.90;;;;;;5052251;28;20036;-69
2023/11/11 07:49:37;;;;;;;1999.90;999.90;;;6.60;99.90;;;;;;5057528;28;20029;-69
2023/11/11 07:52:02;;;;;;;;;;;6.70;99.90;;;;;;5050381;28;20058;-71
2023/11/11 07:54:32;;;;;;;1999.90;999.90;;;6.70;99.90;;;;;;5052552;28;19913;-69
2023/11/11 07:56:58;;;;;;;1999.90;999.90;;;6.60;99.90;;;;;;5059022;28;20033;-69
2023/11/11 07:59:24;;;;;;;1999.90;999.90;;;6.70;99.90;;;;;;5057625;28;20032;-69
2023/11/11 08:01:50;;;;;;;1999.90;999.90;;;6.60;99.90;;;;;;5057782;28;20025;-76
2023/11/11 08:04:16;;;;;;;1999.90;999.90;;;6.60;99.90;;;;;;5058400;28;20043;-70
2023/11/11 08:06:43;;;;;;;1999.90;999.90;;;6.70;99.90;;;;;;5058814;28;20041;-69
2023/11/11 08:09:12;;;;;;;1999.90;999.90;;;6.70;99.90;;;;;;5051872;28;20025;-77
2023/11/11 08:11:38;;;;;;;1999.90;999.90;;;6.70;99.90;;;;;;5058154;28;20044;-69
2023/11/11 08:14:05;;;;;;;1999.90;999.90;;;6.70;99.90;;;;;;5046646;28;20040;-68
2023/11/11 08:16:31;;;;;;;1999.90;999.90;;;6.70;99.90;;;;;;5055123;28;20072;-69
2023/11/11 08:18:57;;;;;;;1999.90;999.90;;;6.70;99.90;;;;;;5056927;28;20037;-70
2023/11/11 08:21:31;;;;;;;1999.90;999.90;;;6.70;99.90;;;;;;5055404;28;20025;-69
2023/11/11 08:24:00;;;;;;;1999.90;999.90;;;6.70;99.90;;;;;;5051259;28;20025;-70
2023/11/11 08:26:27;;;;;;;1999.90;999.90;;;6.80;99.90;;;;;;5048868;28;20021;-69
2023/11/11 08:28:53;;;;;;;1999.90;999.90;;;6.70;99.90;;;;;;5049430;28;20029;-69
2023/11/11 08:31:19;;;;;;;1999.90;999.90;;;6.80;99.90;;;;;;5044923;28;20034;-78
2023/11/11 08:33:44;;;;;;;1999.90;999.90;;;6.80;99.90;;;;;;5040989;28;20037;-69
2023/11/11 08:36:10;;;;;;;1999.90;999.90;;;6.70;99.90;;;;;;5045989;28;20048;-69
2023/11/11 08:38:36;;;;;;;1999.90;999.90;;;6.70;99.90;;;;;;5045889;28;20036;-69
2023/11/11 08:41:02;;;;;;;1999.90;999.90;;;6.70;99.90;;;;;;5048770;28;20268;-77
2023/11/11 08:43:28;;;;;;;1999.90;999.90;;;6.70;99.90;;;;;;5047391;28;20282;-69
2023/11/11 08:45:57;;;;;;;1999.90;999.90;;;6.80;99.90;;;;;;5045010;28;20029;-70
2023/11/11 08:48:23;;;;;;;1999.90;999.90;;;6.80;99.90;;;;;;5049660;28;20091;-69
2023/11/11 08:50:49;;;;;;;1999.90;999.90;;;6.80;99.90;;;;;;5051498;28;20704;-77
2023/11/11 08:53:15;;;;;;;1999.90;999.90;;;6.80;99.90;;;;;;5050642;28;20043;-69
2023/11/11 08:55:41;;;;;;;1999.90;999.90;;;6.90;99.90;;;;;;5051611;28;20060;-69
2023/11/11 08:58:08;;;;;;;1999.90;999.90;;;6.90;99.90;;;;;;5051917;28;20029;-69
2023/11/11 09:00:34;;;;;;;1999.90;999.90;;;6.90;99.90;;;;;;5043908;28;20277;-70
2023/11/11 09:03:00;;;;;;;1999.90;999.90;;;7.00;99.90;;;;;;5054196;28;20040;-77
2023/11/11 09:05:26;;;;;;;1999.90;999.90;;;7.10;99.90;;;;;;5053098;28;20754;-69
2023/11/11 09:07:52;;;;;;;1999.90;999.90;;;7.10;99.90;;;;;;5043017;28;20034;-68
2023/11/11 09:10:19;;;;;;;1999.90;999.90;;;7.30;99.90;;;;;;5047020;28;20024;-69
2023/11/11 09:12:45;;;;;;;1999.90;999.90;;;7.40;99.90;;;;;;5045224;28;20419;-69
2023/11/11 09:15:11;;;;;;;1999.90;999.90;;;7.50;99.90;;;;;;5044100;28;20079;-69
2023/11/11 09:17:38;;;;;;;1999.90;999.90;;;7.60;99.90;;;;;;5054913;28;20391;-69
2023/11/11 09:20:07;;;;;;;1999.90;999.90;;;7.70;99.90;;;;;;5044563;28;20032;-69
2023/11/11 09:22:35;;;;;;;1999.90;999.90;;;7.90;99.90;;;;;;5045664;28;20103;-69
2023/11/11 09:25:01;;;;;;;1999.90;999.90;;;8.20;99.90;;;;;;5050306;28;20353;-77
2023/11/11 09:27:26;;;;;;;1999.90;999.90;;;8.20;99.90;;;;;;5050755;28;20035;-69
2023/11/11 09:29:53;;;;;;;1999.90;999.90;;;8.20;99.90;;;;;;5041581;28;20323;-69
2023/11/11 09:32:19;;;;;;;1999.90;999.90;;;8.30;99.90;;;;;;5051967;28;20061;-69
2023/11/11 09:34:48;;;;;;;1999.90;999.90;;;8.30;99.90;;;;;;5050716;28;20371;-70
2023/11/11 09:37:13;;;;;;;1999.90;999.90;;;8.30;99.90;;;;;;5044115;28;20025;-69
2023/11/11 09:39:39;;;;;;;1999.90;999.90;;;8.40;99.90;;;;;;5044607;28;20021;-69
2023/11/11 09:42:07;;;;;;;1999.90;999.90;;;8.40;99.90;;;;;;5047890;28;20302;-78
2023/11/11 09:44:33;;;;;;;1999.90;999.90;;;8.40;99.90;;;;;;5042915;28;20116;-69
2023/11/11 09:47:00;;;;;;;1999.90;999.90;;;8.40;99.90;;;;;;5048586;28;20491;-74
2023/11/11 09:49:28;;;;;;;1999.90;999.90;;;8.50;99.90;;;;;;5043110;28;20293;-69
2023/11/11 09:51:56;;;;;;;1999.90;999.90;;;8.50;99.90;;;;;;5044700;28;20045;-69
2023/11/11 09:54:22;;;;;;;1999.90;999.90;;;8.60;99.90;;;;;;5038032;28;20025;-70
2023/11/11 09:56:49;;;;;;;1999.90;999.90;;;8.70;99.90;;;;;;5042591;28;20056;-69
2023/11/11 09:59:16;;;;;;;;;;;8.80;99.90;;;;;;5042741;28;20064;-76
2023/11/11 10:01:44;;;;;;;1999.90;999.90;;;8.90;99.90;;;;;;5051812;28;19974;-78
2023/11/11 10:04:10;;;;;;;1999.90;999.90;;;9.00;99.90;;;;;;5036588;28;20431;-69
2023/11/11 10:06:39;;;;;;;1999.90;999.90;;;9.10;99.90;;;;;;5045537;28;20070;-77
2023/11/11 10:09:08;;;;;;;1999.90;999.90;;;9.10;99.90;;;;;;5048979;28;20458;-70
2023/11/11 10:11:34;;;;;;;1999.90;999.90;;;9.20;99.90;;;;;;5052365;28;20051;-68
2023/11/11 10:14:01;;;;;;;1999.90;999.90;;;9.50;99.90;;;;;;5044089;28;20029;-69
2023/11/11 10:16:26;;;;;;;1999.90;999.90;;;9.70;99.90;;;;;;5050344;28;20316;-69
2023/11/11 10:18:53;;;;;;;1999.90;999.90;;;9.80;99.90;;;;;;5053009;28;20042;-69
2023/11/11 10:21:23;;;;;;;1999.90;999.90;;;10.00;99.90;;;;;;5045871;28;20092;-69
2023/11/11 10:23:49;;;;;;;1999.90;999.90;;;10.20;99.90;;;;;;5050142;28;21769;-69
2023/11/11 10:26:20;;;;;;;;;;;10.20;99.90;;;;;;5047748;28;20029;-69
2023/11/11 10:28:50;;;;;;;1999.90;999.90;;;10.10;99.90;;;;;;5043097;28;19912;-70
2023/11/11 10:31:18;;;;;;;1999.90;999.90;;;10.30;99.90;;;;;;5042440;28;20026;-69
2023/11/11 10:33:44;;;;;;;1999.90;999.90;;;10.40;99.90;;;;;;5048459;28;20032;-69
2023/11/11 10:36:11;;;;;;;1999.90;999.90;;;10.40;99.90;;;;;;5039947;28;20052;-69
2023/11/11 10:38:39;;;;;;;1999.90;999.90;;;10.50;99.90;;;;;;5045055;28;20684;-69
2023/11/11 10:41:06;;;;;;;1999.90;999.90;;;10.60;99.90;;;;;;5046865;28;20032;-69
2023/11/11 10:43:33;;;;;;;1999.90;999.90;;;10.60;99.90;;;;;;5048562;28;20283;-69
2023/11/11 10:46:00;;;;;;;1999.90;999.90;;;10.70;99.90;;;;;;5047114;28;20063;-75
2023/11/11 10:48:25;;;;;;;;;;;10.70;99.90;;;;;;5049875;28;20033;-70
2023/11/11 10:50:53;;;;;;;1999.90;999.90;;;10.80;99.90;;;;;;5047447;28;20345;-69
2023/11/11 10:53:19;;;;;;;1999.90;999.90;;;10.90;99.90;;;;;;5043223;28;20024;-69
2023/11/11 10:55:49;;;;;;;1999.90;999.90;;;11.00;99.90;;;;;;5047201;28;20028;-71
2023/11/11 10:58:19;;;;;;;1999.90;999.90;;;11.00;99.90;;;;;;5042545;28;20037;-69
2023/11/11 11:00:49;;;;;;;1999.90;999.90;;;11.10;99.90;;;;;;5052346;28;20505;-70
2023/11/11 11:03:19;;;;;;;1999.90;999.90;;;11.10;99.90;;;;;;5045096;28;20037;-69
2023/11/11 11:06:43;;;;;;;1999.90;999.90;;;11.00;99.90;;;;;;5049541;28;20095;-71
2023/11/11 11:09:28;;;;;;;1999.90;999.90;;;11.00;99.90;;;;;;5022953;28;20038;-70
2023/11/11 11:12:18;;;;;;;1999.90;999.90;;;11.00;99.90;;;;;;5028220;28;20033;-70
2023/11/11 11:14:51;;;;;;;1999.90;999.90;;;11.00;99.90;;;;;;5028876;28;20040;-70
2023/11/11 11:17:36;;;;;;;1999.90;999.90;;;11.10;99.90;;;;;;5029597;28;20061;-69
2023/11/11 11:20:09;;;;;;;1999.90;999.90;;;11.10;99.90;;;;;;5030453;28;20416;-71
2023/11/11 11:22:37;;;;;;;1999.90;999.90;;;11.00;99.90;;;;;;5012992;28;20044;-69
2023/11/11 11:28:14;;;;;;;1999.90;999.90;;;11.30;99.90;;;;;;5029277;28;20053;-72
2023/11/11 11:30:42;;;;;;;1999.90;999.90;;;11.30;99.90;;;;;;5030187;28;20422;-70
2023/11/11 11:33:18;;;;;;;1999.90;999.90;;;11.20;99.90;;;;;;5013077;28;20053;-76
2023/11/11 11:35:49;;;;;;;1999.90;999.90;;;11.00;99.90;;;;;;5030548;28;20034;-72
2023/11/11 11:38:23;;;;;;;1999.90;999.90;;;10.80;99.90;;;;;;5030407;28;20103;-70
2023/11/11 11:40:51;;;;;;;1999.90;999.90;;;10.70;99.90;;;;;;5029750;28;20036;-75
2023/11/11 11:43:30;;;;;;;1999.90;999.90;;;10.60;99.90;;;;;;5038480;28;20045;-71
2023/11/11 11:45:59;;;;;;;1999.90;999.90;;;10.50;99.90;;;;;;5051010;28;20029;-70
2023/11/11 11:48:39;;;;;;;1999.90;999.90;;;10.30;99.90;;;;;;5045074;28;20036;-69
2023/11/11 11:51:18;;;;;;;1999.90;999.90;;;10.30;99.90;;;;;;5041684;28;20076;-70
2023/11/11 11:53:46;;;;;;;1999.90;999.90;;;10.30;99.90;;;;;;5041219;28;20037;-69
2023/11/11 11:56:34;;;;;;;1999.90;999.90;;;10.30;99.90;;;;;;5043853;28;20029;-79
2023/11/11 11:59:02;;;;;;;1999.90;999.90;;;10.20;99.90;;;;;;5049300;28;20033;-74
2023/11/11 12:01:32;;;;;;;1999.90;999.90;;;10.20;99.90;;;;;;5044262;28;20416;-70
2023/11/11 12:03:59;;;;;;;1999.90;999.90;;;10.20;99.90;;;;;;5046937;28;20415;-71
2023/11/11 12:06:26;;;;;;;;;;;10.10;99.90;;;;;;5041820;28;20044;-70
2023/11/11 12:08:57;;;;;;;1999.90;999.90;;;10.00;99.90;;;;;;5049930;28;19950;-70
2023/11/11 12:11:27;;;;;;;1999.90;999.90;;;9.90;99.90;;;;;;5048114;28;20029;-73
2023/11/11 12:13:54;;;;;;;1999.90;999.90;;;9.90;99.90;;;;;;5038015;28;20029;-69